sensor_id;sensor_type;location;lat;lon;timestamp;P1;durP1;ratioP1;P2;durP2;ratioP2
69970;SDS011;57301;50.328;8.542;2023-05-09T00:01:16;22.53;;;15.43;;
69970;SDS011;57301;50.328;8.542;2023-05-09T00:03:43;20.63;;;14.43;;
69970;SDS011;57301;50.328;8.542;2023-05-09T00:06:10;20.45;;;14.95;;
69970;SDS011;57301;50.328;8.542;2023-05-09T00:08:36;25.20;;;17.38;;
69970;SDS011;57301;50.328;8.542;2023-05-09T00:11:03;26.92;;;18.00;;
69970;SDS011;57301;50.328;8.542;2023-05-09T00:13:29;26.23;;;17.73;;
69970;SDS011;57301;50.328;8.542;2023-05-09T00:15:56;27.25;;;17.48;;
69970;SDS011;57301;50.328;8.542;2023-05-09T00:18:23;25.80;;;17.05;;
69970;SDS011;57301;50.328;8.542;2023-05-09T00:20:50;23.05;;;15.93;;
69970;SDS011;57301;50.328;8.542;2023-05-09T00:23:16;21.98;;;15.45;;
69970;SDS011;57301;50.328;8.542;2023-05-09T00:25:43;20.77;;;15.00;;
69970;SDS011;57301;50.328;8.542;2023-05-09T00:28:09;23.70;;;15.82;;
69970;SDS011;57301;50.328;8.542;2023-05-09T00:30:36;22.92;;;16.25;;
69970;SDS011;57301;50.328;8.542;2023-05-09T00:33:02;23.10;;;16.05;;
69970;SDS011;57301;50.328;8.542;2023-05-09T00:35:29;24.77;;;15.48;;
69970;SDS011;57301;50.328;8.542;2023-05-09T00:37:57;21.03;;;15.83;;
69970;SDS011;57301;50.328;8.542;2023-05-09T00:40:24;24.58;;;16.58;;
69970;SDS011;57301;50.328;8.542;2023-05-09T00:42:51;42.70;;;26.80;;
69970;SDS011;57301;50.328;8.542;2023-05-09T00:45:17;28.40;;;18.92;;
69970;SDS011;57301;50.328;8.542;2023-05-09T00:47:44;28.67;;;17.20;;
69970;SDS011;57301;50.328;8.542;2023-05-09T00:50:10;31.30;;;19.70;;
69970;SDS011;57301;50.328;8.542;2023-05-09T00:52:37;26.67;;;17.38;;
69970;SDS011;57301;50.328;8.542;2023-05-09T00:55:04;27.42;;;17.88;;
69970;SDS011;57301;50.328;8.542;2023-05-09T00:57:33;22.52;;;16.25;;
69970;SDS011;57301;50.328;8.542;2023-05-09T01:00:00;25.70;;;16.85;;
69970;SDS011;57301;50.328;8.542;2023-05-09T01:02:27;26.73;;;18.10;;
69970;SDS011;57301;50.328;8.542;2023-05-09T01:04:53;27.40;;;18.05;;
69970;SDS011;57301;50.328;8.542;2023-05-09T01:07:36;24.33;;;16.70;;
69970;SDS011;57301;50.328;8.542;2023-05-09T01:10:15;29.30;;;19.52;;
69970;SDS011;57301;50.328;8.542;2023-05-09T01:12:53;26.73;;;17.48;;
69970;SDS011;57301;50.328;8.542;2023-05-09T01:18:20;23.40;;;16.63;;
69970;SDS011;57301;50.328;8.542;2023-05-09T01:20:57;24.90;;;17.55;;
69970;SDS011;57301;50.328;8.542;2023-05-09T01:23:39;29.08;;;17.52;;
69970;SDS011;57301;50.328;8.542;2023-05-09T01:26:20;23.75;;;15.45;;
69970;SDS011;57301;50.328;8.542;2023-05-09T01:31:54;25.55;;;15.43;;
69970;SDS011;57301;50.328;8.542;2023-05-09T01:34:24;23.15;;;16.30;;
69970;SDS011;57301;50.328;8.542;2023-05-09T01:36:53;25.33;;;17.48;;
69970;SDS011;57301;50.328;8.542;2023-05-09T01:39:23;24.98;;;17.70;;
69970;SDS011;57301;50.328;8.542;2023-05-09T01:41:52;24.17;;;16.20;;
69970;SDS011;57301;50.328;8.542;2023-05-09T01:44:21;26.08;;;17.88;;
69970;SDS011;57301;50.328;8.542;2023-05-09T01:46:51;23.77;;;16.67;;
69970;SDS011;57301;50.328;8.542;2023-05-09T01:49:19;26.75;;;17.75;;
69970;SDS011;57301;50.328;8.542;2023-05-09T01:51:47;25.20;;;17.75;;
69970;SDS011;57301;50.328;8.542;2023-05-09T01:54:15;24.77;;;17.20;;
69970;SDS011;57301;50.328;8.542;2023-05-09T01:56:43;24.85;;;17.55;;
69970;SDS011;57301;50.328;8.542;2023-05-09T01:59:11;25.85;;;16.95;;
69970;SDS011;57301;50.328;8.542;2023-05-09T02:01:42;23.60;;;15.80;;
69970;SDS011;57301;50.328;8.542;2023-05-09T02:04:09;23.60;;;15.93;;
69970;SDS011;57301;50.328;8.542;2023-05-09T02:06:37;22.40;;;15.80;;
69970;SDS011;57301;50.328;8.542;2023-05-09T02:09:05;24.52;;;16.83;;
69970;SDS011;57301;50.328;8.542;2023-05-09T02:11:32;31.50;;;20.55;;
69970;SDS011;57301;50.328;8.542;2023-05-09T02:13:58;32.17;;;21.77;;
69970;SDS011;57301;50.328;8.542;2023-05-09T02:16:25;25.73;;;17.20;;
69970;SDS011;57301;50.328;8.542;2023-05-09T02:18:52;25.63;;;16.97;;
69970;SDS011;57301;50.328;8.542;2023-05-09T02:21:19;27.38;;;18.48;;
69970;SDS011;57301;50.328;8.542;2023-05-09T02:23:45;28.10;;;18.90;;
69970;SDS011;57301;50.328;8.542;2023-05-09T02:26:12;26.10;;;17.83;;
69970;SDS011;57301;50.328;8.542;2023-05-09T02:28:40;24.05;;;16.48;;
69970;SDS011;57301;50.328;8.542;2023-05-09T02:31:09;27.10;;;18.50;;
69970;SDS011;57301;50.328;8.542;2023-05-09T02:33:39;27.73;;;18.17;;
69970;SDS011;57301;50.328;8.542;2023-05-09T02:36:08;26.90;;;17.60;;
69970;SDS011;57301;50.328;8.542;2023-05-09T02:38:35;35.53;;;22.00;;
69970;SDS011;57301;50.328;8.542;2023-05-09T02:41:02;34.20;;;21.55;;
69970;SDS011;57301;50.328;8.542;2023-05-09T02:43:28;32.23;;;19.80;;
69970;SDS011;57301;50.328;8.542;2023-05-09T02:45:54;30.77;;;20.20;;
69970;SDS011;57301;50.328;8.542;2023-05-09T02:48:21;31.85;;;20.58;;
69970;SDS011;57301;50.328;8.542;2023-05-09T02:50:48;34.75;;;21.00;;
69970;SDS011;57301;50.328;8.542;2023-05-09T02:53:14;32.67;;;21.50;;
69970;SDS011;57301;50.328;8.542;2023-05-09T02:55:41;36.07;;;21.97;;
69970;SDS011;57301;50.328;8.542;2023-05-09T02:58:07;33.85;;;21.38;;
69970;SDS011;57301;50.328;8.542;2023-05-09T03:00:40;30.50;;;20.33;;
69970;SDS011;57301;50.328;8.542;2023-05-09T03:03:06;31.38;;;19.75;;
69970;SDS011;57301;50.328;8.542;2023-05-09T03:05:33;29.75;;;19.73;;
69970;SDS011;57301;50.328;8.542;2023-05-09T03:08:00;31.67;;;21.10;;
69970;SDS011;57301;50.328;8.542;2023-05-09T03:10:26;28.35;;;19.67;;
69970;SDS011;57301;50.328;8.542;2023-05-09T03:12:53;29.92;;;20.00;;
69970;SDS011;57301;50.328;8.542;2023-05-09T03:15:20;31.30;;;19.17;;
69970;SDS011;57301;50.328;8.542;2023-05-09T03:17:46;34.83;;;20.48;;
69970;SDS011;57301;50.328;8.542;2023-05-09T03:20:13;30.47;;;19.47;;
69970;SDS011;57301;50.328;8.542;2023-05-09T03:22:40;32.42;;;19.40;;
69970;SDS011;57301;50.328;8.542;2023-05-09T03:25:07;34.80;;;20.83;;
69970;SDS011;57301;50.328;8.542;2023-05-09T03:27:34;34.90;;;21.15;;
69970;SDS011;57301;50.328;8.542;2023-05-09T03:30:02;36.17;;;20.90;;
69970;SDS011;57301;50.328;8.542;2023-05-09T03:32:28;30.90;;;19.90;;
69970;SDS011;57301;50.328;8.542;2023-05-09T03:34:55;32.88;;;20.10;;
69970;SDS011;57301;50.328;8.542;2023-05-09T03:37:22;39.10;;;21.88;;
69970;SDS011;57301;50.328;8.542;2023-05-09T03:39:51;35.13;;;21.88;;
69970;SDS011;57301;50.328;8.542;2023-05-09T03:42:18;34.63;;;22.05;;
69970;SDS011;57301;50.328;8.542;2023-05-09T03:44:44;35.23;;;22.83;;
69970;SDS011;57301;50.328;8.542;2023-05-09T03:47:11;36.75;;;21.65;;
69970;SDS011;57301;50.328;8.542;2023-05-09T03:49:37;39.53;;;22.17;;
69970;SDS011;57301;50.328;8.542;2023-05-09T03:52:04;37.42;;;23.17;;
69970;SDS011;57301;50.328;8.542;2023-05-09T03:54:30;38.13;;;22.85;;
69970;SDS011;57301;50.328;8.542;2023-05-09T03:56:57;35.53;;;21.77;;
69970;SDS011;57301;50.328;8.542;2023-05-09T03:59:23;36.13;;;21.55;;
69970;SDS011;57301;50.328;8.542;2023-05-09T04:01:50;33.67;;;20.77;;
69970;SDS011;57301;50.328;8.542;2023-05-09T04:04:16;34.85;;;20.58;;
69970;SDS011;57301;50.328;8.542;2023-05-09T04:06:43;32.20;;;20.25;;
69970;SDS011;57301;50.328;8.542;2023-05-09T04:09:09;27.93;;;17.40;;
69970;SDS011;57301;50.328;8.542;2023-05-09T04:11:36;28.27;;;17.95;;
69970;SDS011;57301;50.328;8.542;2023-05-09T04:14:02;26.13;;;16.55;;
69970;SDS011;57301;50.328;8.542;2023-05-09T04:16:32;30.23;;;19.45;;
69970;SDS011;57301;50.328;8.542;2023-05-09T04:18:59;27.67;;;18.52;;
69970;SDS011;57301;50.328;8.542;2023-05-09T04:21:25;31.23;;;19.40;;
69970;SDS011;57301;50.328;8.542;2023-05-09T04:23:52;29.38;;;19.45;;
69970;SDS011;57301;50.328;8.542;2023-05-09T04:26:18;30.35;;;20.13;;
69970;SDS011;57301;50.328;8.542;2023-05-09T04:28:47;29.88;;;18.58;;
69970;SDS011;57301;50.328;8.542;2023-05-09T04:31:14;30.88;;;18.88;;
69970;SDS011;57301;50.328;8.542;2023-05-09T04:33:40;28.27;;;18.67;;
69970;SDS011;57301;50.328;8.542;2023-05-09T04:36:07;26.58;;;17.40;;
69970;SDS011;57301;50.328;8.542;2023-05-09T04:38:34;29.55;;;18.45;;
69970;SDS011;57301;50.328;8.542;2023-05-09T04:41:00;28.08;;;17.98;;
69970;SDS011;57301;50.328;8.542;2023-05-09T04:43:27;29.15;;;19.05;;
69970;SDS011;57301;50.328;8.542;2023-05-09T04:45:53;26.77;;;17.47;;
69970;SDS011;57301;50.328;8.542;2023-05-09T04:48:20;27.92;;;18.95;;
69970;SDS011;57301;50.328;8.542;2023-05-09T04:50:46;27.38;;;17.02;;
69970;SDS011;57301;50.328;8.542;2023-05-09T04:53:13;26.95;;;18.02;;
69970;SDS011;57301;50.328;8.542;2023-05-09T04:55:40;23.90;;;16.17;;
69970;SDS011;57301;50.328;8.542;2023-05-09T04:58:07;24.97;;;17.27;;
69970;SDS011;57301;50.328;8.542;2023-05-09T05:00:34;25.67;;;17.55;;
69970;SDS011;57301;50.328;8.542;2023-05-09T05:03:01;26.73;;;18.38;;
69970;SDS011;57301;50.328;8.542;2023-05-09T05:05:28;29.33;;;18.67;;
69970;SDS011;57301;50.328;8.542;2023-05-09T05:07:55;29.45;;;19.00;;
69970;SDS011;57301;50.328;8.542;2023-05-09T05:10:21;26.53;;;18.30;;
69970;SDS011;57301;50.328;8.542;2023-05-09T05:12:48;28.27;;;18.00;;
69970;SDS011;57301;50.328;8.542;2023-05-09T05:15:15;27.45;;;18.00;;
69970;SDS011;57301;50.328;8.542;2023-05-09T05:17:42;24.10;;;16.33;;
69970;SDS011;57301;50.328;8.542;2023-05-09T05:20:09;24.30;;;16.45;;
69970;SDS011;57301;50.328;8.542;2023-05-09T05:22:36;24.30;;;16.80;;
69970;SDS011;57301;50.328;8.542;2023-05-09T05:25:02;25.70;;;16.88;;
69970;SDS011;57301;50.328;8.542;2023-05-09T05:27:30;27.15;;;17.80;;
69970;SDS011;57301;50.328;8.542;2023-05-09T05:30:02;25.25;;;17.50;;
69970;SDS011;57301;50.328;8.542;2023-05-09T05:32:29;27.23;;;17.95;;
69970;SDS011;57301;50.328;8.542;2023-05-09T05:34:56;29.33;;;19.37;;
69970;SDS011;57301;50.328;8.542;2023-05-09T05:37:22;28.60;;;19.27;;
69970;SDS011;57301;50.328;8.542;2023-05-09T05:39:49;29.42;;;19.02;;
69970;SDS011;57301;50.328;8.542;2023-05-09T05:42:16;30.25;;;20.02;;
69970;SDS011;57301;50.328;8.542;2023-05-09T05:44:43;27.13;;;17.88;;
69970;SDS011;57301;50.328;8.542;2023-05-09T05:47:10;28.40;;;19.33;;
69970;SDS011;57301;50.328;8.542;2023-05-09T05:49:37;26.38;;;19.05;;
69970;SDS011;57301;50.328;8.542;2023-05-09T05:52:03;26.45;;;19.83;;
69970;SDS011;57301;50.328;8.542;2023-05-09T05:54:30;26.88;;;18.35;;
69970;SDS011;57301;50.328;8.542;2023-05-09T05:56:56;23.52;;;15.52;;
69970;SDS011;57301;50.328;8.542;2023-05-09T05:59:32;23.43;;;17.40;;
69970;SDS011;57301;50.328;8.542;2023-05-09T06:01:58;24.77;;;17.02;;
69970;SDS011;57301;50.328;8.542;2023-05-09T06:04:25;22.80;;;16.63;;
69970;SDS011;57301;50.328;8.542;2023-05-09T06:06:53;25.75;;;18.13;;
69970;SDS011;57301;50.328;8.542;2023-05-09T06:09:19;23.40;;;16.60;;
69970;SDS011;57301;50.328;8.542;2023-05-09T06:11:46;24.90;;;18.17;;
69970;SDS011;57301;50.328;8.542;2023-05-09T06:14:12;23.60;;;17.75;;
69970;SDS011;57301;50.328;8.542;2023-05-09T06:16:39;24.92;;;18.35;;
69970;SDS011;57301;50.328;8.542;2023-05-09T06:19:06;25.20;;;17.67;;
69970;SDS011;57301;50.328;8.542;2023-05-09T06:21:33;24.50;;;18.17;;
69970;SDS011;57301;50.328;8.542;2023-05-09T06:23:59;26.73;;;18.40;;
69970;SDS011;57301;50.328;8.542;2023-05-09T06:26:35;26.73;;;19.08;;
69970;SDS011;57301;50.328;8.542;2023-05-09T06:29:02;27.45;;;18.85;;
69970;SDS011;57301;50.328;8.542;2023-05-09T06:31:31;25.38;;;18.60;;
69970;SDS011;57301;50.328;8.542;2023-05-09T06:33:58;26.80;;;19.05;;
69970;SDS011;57301;50.328;8.542;2023-05-09T06:36:24;28.00;;;18.93;;
69970;SDS011;57301;50.328;8.542;2023-05-09T06:38:51;28.30;;;17.80;;
69970;SDS011;57301;50.328;8.542;2023-05-09T06:41:17;26.88;;;18.58;;
69970;SDS011;57301;50.328;8.542;2023-05-09T06:43:44;26.02;;;18.10;;
69970;SDS011;57301;50.328;8.542;2023-05-09T06:46:10;33.72;;;22.58;;
69970;SDS011;57301;50.328;8.542;2023-05-09T06:48:39;26.70;;;19.30;;
69970;SDS011;57301;50.328;8.542;2023-05-09T06:51:08;25.75;;;19.42;;
69970;SDS011;57301;50.328;8.542;2023-05-09T06:53:36;25.98;;;18.05;;
69970;SDS011;57301;50.328;8.542;2023-05-09T06:56:03;27.30;;;19.05;;
69970;SDS011;57301;50.328;8.542;2023-05-09T06:58:30;30.17;;;18.67;;
69970;SDS011;57301;50.328;8.542;2023-05-09T07:00:57;28.57;;;18.60;;
69970;SDS011;57301;50.328;8.542;2023-05-09T07:03:24;28.75;;;20.08;;
69970;SDS011;57301;50.328;8.542;2023-05-09T07:05:51;26.55;;;19.60;;
69970;SDS011;57301;50.328;8.542;2023-05-09T07:08:17;27.38;;;19.80;;
69970;SDS011;57301;50.328;8.542;2023-05-09T07:10:44;33.20;;;20.77;;
69970;SDS011;57301;50.328;8.542;2023-05-09T07:13:10;28.07;;;21.13;;
69970;SDS011;57301;50.328;8.542;2023-05-09T07:15:37;27.02;;;19.25;;
69970;SDS011;57301;50.328;8.542;2023-05-09T07:18:08;26.25;;;18.98;;
69970;SDS011;57301;50.328;8.542;2023-05-09T07:20:35;28.55;;;19.85;;
69970;SDS011;57301;50.328;8.542;2023-05-09T07:23:02;27.70;;;19.40;;
69970;SDS011;57301;50.328;8.542;2023-05-09T07:25:29;30.93;;;19.93;;
69970;SDS011;57301;50.328;8.542;2023-05-09T07:27:56;29.77;;;20.15;;
69970;SDS011;57301;50.328;8.542;2023-05-09T07:30:23;30.13;;;21.05;;
69970;SDS011;57301;50.328;8.542;2023-05-09T07:32:50;29.65;;;20.50;;
69970;SDS011;57301;50.328;8.542;2023-05-09T07:35:17;30.08;;;21.60;;
69970;SDS011;57301;50.328;8.542;2023-05-09T07:37:45;30.80;;;20.43;;
69970;SDS011;57301;50.328;8.542;2023-05-09T07:40:11;30.33;;;20.77;;
69970;SDS011;57301;50.328;8.542;2023-05-09T07:42:39;30.45;;;20.30;;
69970;SDS011;57301;50.328;8.542;2023-05-09T07:45:06;29.92;;;20.83;;
69970;SDS011;57301;50.328;8.542;2023-05-09T07:47:33;30.48;;;20.92;;
69970;SDS011;57301;50.328;8.542;2023-05-09T07:49:59;31.67;;;21.97;;
69970;SDS011;57301;50.328;8.542;2023-05-09T07:52:29;31.23;;;21.27;;
69970;SDS011;57301;50.328;8.542;2023-05-09T07:54:56;29.83;;;20.33;;
69970;SDS011;57301;50.328;8.542;2023-05-09T07:57:22;31.67;;;22.52;;
69970;SDS011;57301;50.328;8.542;2023-05-09T07:59:49;30.42;;;20.80;;
69970;SDS011;57301;50.328;8.542;2023-05-09T08:02:15;28.17;;;21.33;;
69970;SDS011;57301;50.328;8.542;2023-05-09T08:04:42;29.45;;;20.15;;
69970;SDS011;57301;50.328;8.542;2023-05-09T08:07:09;30.13;;;21.02;;
69970;SDS011;57301;50.328;8.542;2023-05-09T08:09:37;29.40;;;20.17;;
69970;SDS011;57301;50.328;8.542;2023-05-09T08:12:03;25.73;;;18.83;;
69970;SDS011;57301;50.328;8.542;2023-05-09T08:14:30;26.73;;;19.17;;
69970;SDS011;57301;50.328;8.542;2023-05-09T08:16:59;29.45;;;19.45;;
69970;SDS011;57301;50.328;8.542;2023-05-09T08:19:26;28.20;;;20.38;;
69970;SDS011;57301;50.328;8.542;2023-05-09T08:21:52;30.67;;;20.02;;
69970;SDS011;57301;50.328;8.542;2023-05-09T08:24:19;26.58;;;18.83;;
69970;SDS011;57301;50.328;8.542;2023-05-09T08:26:46;27.57;;;20.47;;
69970;SDS011;57301;50.328;8.542;2023-05-09T08:29:12;26.65;;;18.95;;
69970;SDS011;57301;50.328;8.542;2023-05-09T08:31:39;26.77;;;19.42;;
69970;SDS011;57301;50.328;8.542;2023-05-09T08:34:06;27.45;;;18.50;;
69970;SDS011;57301;50.328;8.542;2023-05-09T08:36:33;25.83;;;20.00;;
69970;SDS011;57301;50.328;8.542;2023-05-09T08:38:59;27.63;;;18.50;;
69970;SDS011;57301;50.328;8.542;2023-05-09T08:41:26;25.02;;;18.85;;
69970;SDS011;57301;50.328;8.542;2023-05-09T08:43:56;24.60;;;18.45;;
69970;SDS011;57301;50.328;8.542;2023-05-09T08:46:38;26.90;;;18.42;;
69970;SDS011;57301;50.328;8.542;2023-05-09T08:49:09;23.83;;;18.35;;
69970;SDS011;57301;50.328;8.542;2023-05-09T08:51:36;27.37;;;19.27;;
69970;SDS011;57301;50.328;8.542;2023-05-09T08:54:03;26.88;;;20.13;;
69970;SDS011;57301;50.328;8.542;2023-05-09T08:56:30;29.75;;;19.60;;
69970;SDS011;57301;50.328;8.542;2023-05-09T08:58:59;25.08;;;18.90;;
69970;SDS011;57301;50.328;8.542;2023-05-09T09:01:26;28.08;;;19.90;;
69970;SDS011;57301;50.328;8.542;2023-05-09T09:03:53;27.67;;;20.13;;
69970;SDS011;57301;50.328;8.542;2023-05-09T09:06:20;25.83;;;19.08;;
69970;SDS011;57301;50.328;8.542;2023-05-09T09:08:48;27.15;;;19.77;;
69970;SDS011;57301;50.328;8.542;2023-05-09T09:11:16;28.25;;;19.90;;
69970;SDS011;57301;50.328;8.542;2023-05-09T09:13:44;26.77;;;19.05;;
69970;SDS011;57301;50.328;8.542;2023-05-09T09:16:17;27.10;;;20.07;;
69970;SDS011;57301;50.328;8.542;2023-05-09T09:18:46;26.90;;;18.95;;
69970;SDS011;57301;50.328;8.542;2023-05-09T09:21:16;27.95;;;19.13;;
69970;SDS011;57301;50.328;8.542;2023-05-09T09:23:45;28.17;;;17.95;;
69970;SDS011;57301;50.328;8.542;2023-05-09T09:26:12;24.48;;;17.75;;
69970;SDS011;57301;50.328;8.542;2023-05-09T09:28:39;25.73;;;17.37;;
69970;SDS011;57301;50.328;8.542;2023-05-09T09:31:22;24.50;;;19.00;;
69970;SDS011;57301;50.328;8.542;2023-05-09T09:34:00;27.75;;;17.58;;
69970;SDS011;57301;50.328;8.542;2023-05-09T09:36:30;23.95;;;18.45;;
69970;SDS011;57301;50.328;8.542;2023-05-09T09:39:03;27.98;;;17.95;;
69970;SDS011;57301;50.328;8.542;2023-05-09T09:43:58;26.98;;;18.13;;
69970;SDS011;57301;50.328;8.542;2023-05-09T09:46:42;26.50;;;19.88;;
69970;SDS011;57301;50.328;8.542;2023-05-09T09:51:51;29.85;;;19.73;;
69970;SDS011;57301;50.328;8.542;2023-05-09T09:54:19;25.90;;;18.67;;
69970;SDS011;57301;50.328;8.542;2023-05-09T09:56:50;27.63;;;18.30;;
69970;SDS011;57301;50.328;8.542;2023-05-09T09:59:20;27.05;;;18.25;;
69970;SDS011;57301;50.328;8.542;2023-05-09T10:04:21;27.63;;;19.17;;
69970;SDS011;57301;50.328;8.542;2023-05-09T10:09:22;26.67;;;17.80;;
69970;SDS011;57301;50.328;8.542;2023-05-09T10:11:50;25.00;;;17.08;;
69970;SDS011;57301;50.328;8.542;2023-05-09T10:14:18;24.00;;;17.95;;
69970;SDS011;57301;50.328;8.542;2023-05-09T10:16:47;24.58;;;17.85;;
69970;SDS011;57301;50.328;8.542;2023-05-09T10:19:18;24.63;;;17.07;;
69970;SDS011;57301;50.328;8.542;2023-05-09T10:21:49;23.83;;;16.23;;
69970;SDS011;57301;50.328;8.542;2023-05-09T10:24:22;24.50;;;17.42;;
69970;SDS011;57301;50.328;8.542;2023-05-09T10:26:55;22.83;;;17.42;;
69970;SDS011;57301;50.328;8.542;2023-05-09T10:29:35;22.63;;;15.73;;
69970;SDS011;57301;50.328;8.542;2023-05-09T10:32:08;21.80;;;15.80;;
69970;SDS011;57301;50.328;8.542;2023-05-09T10:34:41;22.10;;;14.57;;
69970;SDS011;57301;50.328;8.542;2023-05-09T10:37:12;21.48;;;15.68;;
69970;SDS011;57301;50.328;8.542;2023-05-09T10:39:41;23.17;;;14.88;;
69970;SDS011;57301;50.328;8.542;2023-05-09T10:42:09;22.15;;;15.85;;
69970;SDS011;57301;50.328;8.542;2023-05-09T10:44:37;20.97;;;15.33;;
69970;SDS011;57301;50.328;8.542;2023-05-09T10:47:04;22.35;;;15.30;;
69970;SDS011;57301;50.328;8.542;2023-05-09T10:49:31;21.27;;;15.50;;
69970;SDS011;57301;50.328;8.542;2023-05-09T10:52:02;21.05;;;15.13;;
69970;SDS011;57301;50.328;8.542;2023-05-09T10:54:29;20.90;;;14.90;;
69970;SDS011;57301;50.328;8.542;2023-05-09T10:56:59;19.90;;;14.80;;
69970;SDS011;57301;50.328;8.542;2023-05-09T10:59:44;21.15;;;14.30;;
69970;SDS011;57301;50.328;8.542;2023-05-09T11:02:12;21.77;;;15.90;;
69970;SDS011;57301;50.328;8.542;2023-05-09T11:04:39;21.90;;;15.98;;
69970;SDS011;57301;50.328;8.542;2023-05-09T11:07:21;22.13;;;15.30;;
69970;SDS011;57301;50.328;8.542;2023-05-09T11:09:52;23.73;;;15.87;;
69970;SDS011;57301;50.328;8.542;2023-05-09T11:12:32;23.25;;;16.50;;
69970;SDS011;57301;50.328;8.542;2023-05-09T11:15:05;20.75;;;15.80;;
69970;SDS011;57301;50.328;8.542;2023-05-09T11:17:36;24.23;;;16.48;;
69970;SDS011;57301;50.328;8.542;2023-05-09T11:20:04;23.38;;;17.00;;
69970;SDS011;57301;50.328;8.542;2023-05-09T11:22:41;24.03;;;16.23;;
69970;SDS011;57301;50.328;8.542;2023-05-09T11:25:10;21.58;;;15.90;;
69970;SDS011;57301;50.328;8.542;2023-05-09T11:27:41;21.08;;;15.60;;
69970;SDS011;57301;50.328;8.542;2023-05-09T11:30:16;22.38;;;15.85;;
69970;SDS011;57301;50.328;8.542;2023-05-09T11:32:45;22.92;;;15.73;;
69970;SDS011;57301;50.328;8.542;2023-05-09T11:35:21;20.17;;;15.67;;
69970;SDS011;57301;50.328;8.542;2023-05-09T11:37:52;23.52;;;15.95;;
69970;SDS011;57301;50.328;8.542;2023-05-09T11:40:26;21.08;;;14.55;;
69970;SDS011;57301;50.328;8.542;2023-05-09T11:42:53;20.85;;;15.77;;
69970;SDS011;57301;50.328;8.542;2023-05-09T11:45:27;20.52;;;14.43;;
69970;SDS011;57301;50.328;8.542;2023-05-09T11:47:55;26.57;;;16.23;;
69970;SDS011;57301;50.328;8.542;2023-05-09T11:50:22;19.83;;;14.93;;
69970;SDS011;57301;50.328;8.542;2023-05-09T11:52:49;25.50;;;16.42;;
69970;SDS011;57301;50.328;8.542;2023-05-09T11:55:17;21.63;;;15.73;;
69970;SDS011;57301;50.328;8.542;2023-05-09T11:57:49;23.40;;;16.10;;
69970;SDS011;57301;50.328;8.542;2023-05-09T12:00:17;22.23;;;16.67;;
69970;SDS011;57301;50.328;8.542;2023-05-09T12:02:46;24.10;;;15.07;;
69970;SDS011;57301;50.328;8.542;2023-05-09T12:05:14;23.77;;;16.35;;
69970;SDS011;57301;50.328;8.542;2023-05-09T12:07:42;21.10;;;15.32;;
69970;SDS011;57301;50.328;8.542;2023-05-09T12:12:45;19.80;;;14.07;;
69970;SDS011;57301;50.328;8.542;2023-05-09T12:15:16;19.27;;;14.90;;
69970;SDS011;57301;50.328;8.542;2023-05-09T12:17:44;19.30;;;13.35;;
69970;SDS011;57301;50.328;8.542;2023-05-09T12:20:13;22.17;;;15.23;;
69970;SDS011;57301;50.328;8.542;2023-05-09T12:22:42;22.83;;;16.48;;
69970;SDS011;57301;50.328;8.542;2023-05-09T12:25:09;21.80;;;16.17;;
69970;SDS011;57301;50.328;8.542;2023-05-09T12:27:38;26.60;;;18.55;;
69970;SDS011;57301;50.328;8.542;2023-05-09T12:30:05;29.10;;;18.80;;
69970;SDS011;57301;50.328;8.542;2023-05-09T12:32:35;25.00;;;18.45;;
69970;SDS011;57301;50.328;8.542;2023-05-09T12:35:07;23.58;;;16.83;;
69970;SDS011;57301;50.328;8.542;2023-05-09T12:37:36;26.13;;;17.93;;
69970;SDS011;57301;50.328;8.542;2023-05-09T12:40:04;27.75;;;19.33;;
69970;SDS011;57301;50.328;8.542;2023-05-09T12:42:34;25.77;;;18.38;;
69970;SDS011;57301;50.328;8.542;2023-05-09T12:45:01;26.15;;;17.60;;
69970;SDS011;57301;50.328;8.542;2023-05-09T12:47:29;26.13;;;17.42;;
69970;SDS011;57301;50.328;8.542;2023-05-09T12:49:57;25.07;;;17.17;;
69970;SDS011;57301;50.328;8.542;2023-05-09T12:52:24;25.95;;;16.52;;
69970;SDS011;57301;50.328;8.542;2023-05-09T12:54:51;22.17;;;15.38;;
69970;SDS011;57301;50.328;8.542;2023-05-09T12:57:19;21.92;;;16.13;;
69970;SDS011;57301;50.328;8.542;2023-05-09T12:59:48;20.73;;;14.60;;
69970;SDS011;57301;50.328;8.542;2023-05-09T13:02:15;22.13;;;16.10;;
69970;SDS011;57301;50.328;8.542;2023-05-09T13:04:42;18.85;;;14.00;;
69970;SDS011;57301;50.328;8.542;2023-05-09T13:07:11;19.77;;;14.15;;
69970;SDS011;57301;50.328;8.542;2023-05-09T13:09:52;19.95;;;14.63;;
69970;SDS011;57301;50.328;8.542;2023-05-09T13:12:20;18.60;;;13.25;;
69970;SDS011;57301;50.328;8.542;2023-05-09T13:14:47;16.33;;;13.20;;
69970;SDS011;57301;50.328;8.542;2023-05-09T13:17:14;17.23;;;12.68;;
69970;SDS011;57301;50.328;8.542;2023-05-09T13:19:43;14.68;;;11.80;;
69970;SDS011;57301;50.328;8.542;2023-05-09T13:22:13;15.55;;;12.88;;
69970;SDS011;57301;50.328;8.542;2023-05-09T13:24:39;16.77;;;12.90;;
69970;SDS011;57301;50.328;8.542;2023-05-09T13:27:09;17.30;;;13.83;;
69970;SDS011;57301;50.328;8.542;2023-05-09T13:29:37;17.23;;;13.23;;
69970;SDS011;57301;50.328;8.542;2023-05-09T13:32:04;17.58;;;13.13;;
69970;SDS011;57301;50.328;8.542;2023-05-09T13:34:31;17.63;;;12.82;;
69970;SDS011;57301;50.328;8.542;2023-05-09T13:36:57;15.98;;;12.82;;
69970;SDS011;57301;50.328;8.542;2023-05-09T13:39:24;17.03;;;12.23;;
69970;SDS011;57301;50.328;8.542;2023-05-09T13:41:50;14.73;;;11.48;;
69970;SDS011;57301;50.328;8.542;2023-05-09T13:44:18;16.00;;;12.20;;
69970;SDS011;57301;50.328;8.542;2023-05-09T13:46:44;14.60;;;11.43;;
69970;SDS011;57301;50.328;8.542;2023-05-09T13:49:12;13.43;;;10.52;;
69970;SDS011;57301;50.328;8.542;2023-05-09T13:51:38;14.73;;;10.90;;
69970;SDS011;57301;50.328;8.542;2023-05-09T13:54:05;16.40;;;11.40;;
69970;SDS011;57301;50.328;8.542;2023-05-09T13:56:38;11.43;;;9.02;;
69970;SDS011;57301;50.328;8.542;2023-05-09T13:59:05;13.82;;;9.93;;
69970;SDS011;57301;50.328;8.542;2023-05-09T14:01:32;11.93;;;8.93;;
69970;SDS011;57301;50.328;8.542;2023-05-09T14:03:59;14.00;;;10.00;;
69970;SDS011;57301;50.328;8.542;2023-05-09T14:06:26;12.18;;;8.98;;
69970;SDS011;57301;50.328;8.542;2023-05-09T14:08:54;14.10;;;9.35;;
69970;SDS011;57301;50.328;8.542;2023-05-09T14:11:21;11.60;;;9.20;;
69970;SDS011;57301;50.328;8.542;2023-05-09T14:13:48;43.45;;;21.35;;
69970;SDS011;57301;50.328;8.542;2023-05-09T14:16:15;25.73;;;15.43;;
69970;SDS011;57301;50.328;8.542;2023-05-09T14:18:41;17.45;;;11.32;;
69970;SDS011;57301;50.328;8.542;2023-05-09T14:21:08;12.48;;;9.70;;
69970;SDS011;57301;50.328;8.542;2023-05-09T14:23:34;11.00;;;8.60;;
69970;SDS011;57301;50.328;8.542;2023-05-09T14:26:01;11.65;;;9.10;;
69970;SDS011;57301;50.328;8.542;2023-05-09T14:28:27;13.07;;;9.17;;
69970;SDS011;57301;50.328;8.542;2023-05-09T14:30:54;17.25;;;11.27;;
69970;SDS011;57301;50.328;8.542;2023-05-09T14:33:20;13.52;;;9.95;;
69970;SDS011;57301;50.328;8.542;2023-05-09T14:35:47;29.92;;;17.77;;
69970;SDS011;57301;50.328;8.542;2023-05-09T14:38:14;51.58;;;25.52;;
69970;SDS011;57301;50.328;8.542;2023-05-09T14:40:40;20.20;;;13.57;;
69970;SDS011;57301;50.328;8.542;2023-05-09T14:43:07;25.08;;;12.52;;
69970;SDS011;57301;50.328;8.542;2023-05-09T14:45:34;10.52;;;8.07;;